CMB861 Details

Departure: RAFO Thumrait (OOTH)
Arrival: Diego Garcia (FJDG) at N/A
Route: KIVEL UM551 ANGAL MOXET L516 NKW
Notes: USTRANSCOM CONTRACT FLIGHT


Current Weather Information
No METAR available for OOTH.
FJDG 191555Z 19003KT 9000 -SHRA SCT017 BKN050 OVC080 26/25 A2995 RMK SLP139 P0002 T02550250